Terminal Aerodrome Forecast
Issued by NWS

Home | Current Version | Previous Version | Text Only | Print | Product List | Glossary On
Versions: 1 2 3 4 5 6 7 8 9 10 11 12 13 14 15 16 17 18 19 20 21 22 23 24
000
FTPA31 PHFO 191700
TAFJHM
TAF
PHJH 191738Z 1918/2018 06015G22KT P6SM VCSH FEW015 SCT045 BKN060
     FM192200 05022G32KT P6SM VCSH FEW020 BKN050
     FM200500 06012G20KT P6SM VCSH FEW015 SCT040 BKN060
      AMD NOT SKED AFT 200400=

USA.gov is the U.S. government's official web portal to all federal, state and local government web resources and services.